sensor_id;sensor_type;location;lat;lon;timestamp;temperature;humidity
24410;DHT22;12543;53.364;-1.504;2022-09-13T00:20:28;13.90;99.90
24410;DHT22;12543;53.364;-1.504;2022-09-13T01:46:48;12.90;99.90
24410;DHT22;12543;53.364;-1.504;2022-09-13T01:51:48;12.80;99.90
24410;DHT22;12543;53.364;-1.504;2022-09-13T01:59:21;12.80;99.90
24410;DHT22;12543;53.364;-1.504;2022-09-13T02:02:11;12.80;99.90
24410;DHT22;12543;53.364;-1.504;2022-09-13T02:39:04;12.70;99.90
24410;DHT22;12543;53.364;-1.504;2022-09-13T05:31:47;11.80;99.90
24410;DHT22;12543;53.364;-1.504;2022-09-13T08:14:26;13.70;99.90
24410;DHT22;12543;53.364;-1.504;2022-09-13T08:16:55;13.70;99.90
24410;DHT22;12543;53.364;-1.504;2022-09-13T08:21:58;13.90;99.90
24410;DHT22;12543;53.364;-1.504;2022-09-13T08:39:14;13.90;99.90
24410;DHT22;12543;53.364;-1.504;2022-09-13T08:44:31;14.50;99.90
24410;DHT22;12543;53.364;-1.504;2022-09-13T08:47:14;14.60;99.90
24410;DHT22;12543;53.364;-1.504;2022-09-13T08:49:47;14.70;99.90
24410;DHT22;12543;53.364;-1.504;2022-09-13T08:52:29;14.70;99.90
24410;DHT22;12543;53.364;-1.504;2022-09-13T08:54:59;14.90;99.90
24410;DHT22;12543;53.364;-1.504;2022-09-13T08:57:44;15.00;99.90
24410;DHT22;12543;53.364;-1.504;2022-09-13T09:00:19;15.30;99.90
24410;DHT22;12543;53.364;-1.504;2022-09-13T09:07:44;16.40;99.90
24410;DHT22;12543;53.364;-1.504;2022-09-13T09:10:19;16.80;99.90
24410;DHT22;12543;53.364;-1.504;2022-09-13T09:12:54;17.30;99.90
24410;DHT22;12543;53.364;-1.504;2022-09-13T09:15:23;17.70;99.90
24410;DHT22;12543;53.364;-1.504;2022-09-13T09:17:55;18.20;99.90
24410;DHT22;12543;53.364;-1.504;2022-09-13T09:22:52;18.80;99.90
24410;DHT22;12543;53.364;-1.504;2022-09-13T09:25:22;19.10;99.90
24410;DHT22;12543;53.364;-1.504;2022-09-13T09:27:50;19.30;99.90
24410;DHT22;12543;53.364;-1.504;2022-09-13T09:30:17;19.50;99.90
24410;DHT22;12543;53.364;-1.504;2022-09-13T09:35:17;19.90;99.90
24410;DHT22;12543;53.364;-1.504;2022-09-13T09:37:49;20.10;99.90
24410;DHT22;12543;53.364;-1.504;2022-09-13T09:40:19;20.30;99.90
24410;DHT22;12543;53.364;-1.504;2022-09-13T09:42:47;20.40;99.90
24410;DHT22;12543;53.364;-1.504;2022-09-13T09:45:28;20.60;99.90
24410;DHT22;12543;53.364;-1.504;2022-09-13T09:47:58;20.80;99.90
24410;DHT22;12543;53.364;-1.504;2022-09-13T09:50:27;21.00;99.90
24410;DHT22;12543;53.364;-1.504;2022-09-13T09:53:11;21.10;99.90
24410;DHT22;12543;53.364;-1.504;2022-09-13T09:55:47;21.20;99.90
24410;DHT22;12543;53.364;-1.504;2022-09-13T09:58:16;21.30;99.90
24410;DHT22;12543;53.364;-1.504;2022-09-13T10:00:50;21.50;99.90
24410;DHT22;12543;53.364;-1.504;2022-09-13T10:03:18;21.60;99.90
24410;DHT22;12543;53.364;-1.504;2022-09-13T10:05:46;21.60;99.90
24410;DHT22;12543;53.364;-1.504;2022-09-13T10:08:27;21.70;99.90
24410;DHT22;12543;53.364;-1.504;2022-09-13T10:10:55;21.80;99.90
24410;DHT22;12543;53.364;-1.504;2022-09-13T10:13:31;21.80;99.90
24410;DHT22;12543;53.364;-1.504;2022-09-13T10:15:59;21.80;99.90
24410;DHT22;12543;53.364;-1.504;2022-09-13T10:18:33;21.90;99.90
24410;DHT22;12543;53.364;-1.504;2022-09-13T10:23:44;22.10;99.90
24410;DHT22;12543;53.364;-1.504;2022-09-13T10:26:17;22.30;99.90
24410;DHT22;12543;53.364;-1.504;2022-09-13T10:31:12;22.80;99.90
24410;DHT22;12543;53.364;-1.504;2022-09-13T10:33:49;23.10;99.90
24410;DHT22;12543;53.364;-1.504;2022-09-13T10:36:36;23.40;99.90
24410;DHT22;12543;53.364;-1.504;2022-09-13T10:39:20;23.60;99.90
24410;DHT22;12543;53.364;-1.504;2022-09-13T10:41:53;23.80;99.90
24410;DHT22;12543;53.364;-1.504;2022-09-13T10:44:37;23.90;99.90
24410;DHT22;12543;53.364;-1.504;2022-09-13T10:47:06;23.90;99.90
24410;DHT22;12543;53.364;-1.504;2022-09-13T10:49:58;23.90;99.90
24410;DHT22;12543;53.364;-1.504;2022-09-13T10:52:32;23.90;99.90
24410;DHT22;12543;53.364;-1.504;2022-09-13T10:57:42;23.90;99.90
24410;DHT22;12543;53.364;-1.504;2022-09-13T11:03:06;23.90;99.90
24410;DHT22;12543;53.364;-1.504;2022-09-13T11:05:42;23.80;99.90
24410;DHT22;12543;53.364;-1.504;2022-09-13T11:23:50;23.00;99.90
24410;DHT22;12543;53.364;-1.504;2022-09-13T11:29:04;23.00;99.90
24410;DHT22;12543;53.364;-1.504;2022-09-13T11:31:48;23.10;99.90
24410;DHT22;12543;53.364;-1.504;2022-09-13T11:37:25;23.30;99.90
24410;DHT22;12543;53.364;-1.504;2022-09-13T11:45:27;23.90;99.90
24410;DHT22;12543;53.364;-1.504;2022-09-13T11:51:04;24.30;99.90
24410;DHT22;12543;53.364;-1.504;2022-09-13T11:53:29;24.60;99.90
24410;DHT22;12543;53.364;-1.504;2022-09-13T11:56:10;24.60;99.90
24410;DHT22;12543;53.364;-1.504;2022-09-13T11:58:53;24.50;99.90
24410;DHT22;12543;53.364;-1.504;2022-09-13T12:01:24;24.40;99.90
24410;DHT22;12543;53.364;-1.504;2022-09-13T12:04:00;24.30;99.90
24410;DHT22;12543;53.364;-1.504;2022-09-13T12:06:42;24.10;99.90
24410;DHT22;12543;53.364;-1.504;2022-09-13T12:11:42;23.60;99.90
24410;DHT22;12543;53.364;-1.504;2022-09-13T12:14:11;23.40;99.90
24410;DHT22;12543;53.364;-1.504;2022-09-13T12:16:48;23.30;99.90
24410;DHT22;12543;53.364;-1.504;2022-09-13T12:21:43;23.00;99.90
24410;DHT22;12543;53.364;-1.504;2022-09-13T12:26:58;22.70;99.90
24410;DHT22;12543;53.364;-1.504;2022-09-13T12:29:28;22.50;99.90
24410;DHT22;12543;53.364;-1.504;2022-09-13T12:31:59;22.40;99.90
24410;DHT22;12543;53.364;-1.504;2022-09-13T12:34:31;22.40;99.90
24410;DHT22;12543;53.364;-1.504;2022-09-13T12:39:56;22.30;99.90
24410;DHT22;12543;53.364;-1.504;2022-09-13T12:42:47;22.20;99.90
24410;DHT22;12543;53.364;-1.504;2022-09-13T12:45:27;22.10;99.90
24410;DHT22;12543;53.364;-1.504;2022-09-13T12:48:03;22.00;99.90
24410;DHT22;12543;53.364;-1.504;2022-09-13T12:50:49;22.00;99.90
24410;DHT22;12543;53.364;-1.504;2022-09-13T13:01:12;21.70;99.90
24410;DHT22;12543;53.364;-1.504;2022-09-13T13:03:44;21.70;99.90
24410;DHT22;12543;53.364;-1.504;2022-09-13T13:09:01;21.70;99.90
24410;DHT22;12543;53.364;-1.504;2022-09-13T13:11:29;21.80;99.90
24410;DHT22;12543;53.364;-1.504;2022-09-13T13:14:10;21.90;99.90
24410;DHT22;12543;53.364;-1.504;2022-09-13T13:16:51;22.00;99.90
24410;DHT22;12543;53.364;-1.504;2022-09-13T13:19:29;22.00;99.90
24410;DHT22;12543;53.364;-1.504;2022-09-13T13:24:44;21.80;99.90
24410;DHT22;12543;53.364;-1.504;2022-09-13T13:35:30;21.60;99.90
24410;DHT22;12543;53.364;-1.504;2022-09-13T13:38:13;21.60;99.90
24410;DHT22;12543;53.364;-1.504;2022-09-13T13:40:39;21.60;99.90
24410;DHT22;12543;53.364;-1.504;2022-09-13T13:48:40;21.50;99.90
24410;DHT22;12543;53.364;-1.504;2022-09-13T13:53:46;21.50;99.90
24410;DHT22;12543;53.364;-1.504;2022-09-13T13:56:33;21.50;99.90
24410;DHT22;12543;53.364;-1.504;2022-09-13T14:01:47;21.50;99.90
24410;DHT22;12543;53.364;-1.504;2022-09-13T14:06:57;21.40;99.90
24410;DHT22;12543;53.364;-1.504;2022-09-13T14:09:45;21.40;99.90
24410;DHT22;12543;53.364;-1.504;2022-09-13T14:19:58;21.30;99.90
24410;DHT22;12543;53.364;-1.504;2022-09-13T14:22:26;21.30;99.90
24410;DHT22;12543;53.364;-1.504;2022-09-13T14:24:54;21.30;99.90
24410;DHT22;12543;53.364;-1.504;2022-09-13T14:27:22;21.20;99.90
24410;DHT22;12543;53.364;-1.504;2022-09-13T14:29:51;21.20;99.90
24410;DHT22;12543;53.364;-1.504;2022-09-13T14:32:19;21.20;99.90
24410;DHT22;12543;53.364;-1.504;2022-09-13T14:35:05;21.10;99.90
24410;DHT22;12543;53.364;-1.504;2022-09-13T14:37:34;21.10;99.90
24410;DHT22;12543;53.364;-1.504;2022-09-13T14:40:15;21.00;99.90
24410;DHT22;12543;53.364;-1.504;2022-09-13T14:42:44;21.00;99.90
24410;DHT22;12543;53.364;-1.504;2022-09-13T14:45:33;20.90;99.90
24410;DHT22;12543;53.364;-1.504;2022-09-13T14:48:06;20.90;99.90
24410;DHT22;12543;53.364;-1.504;2022-09-13T14:50:41;20.90;99.90
24410;DHT22;12543;53.364;-1.504;2022-09-13T14:53:13;20.80;99.90
24410;DHT22;12543;53.364;-1.504;2022-09-13T14:55:42;20.80;99.90
24410;DHT22;12543;53.364;-1.504;2022-09-13T14:58:21;20.80;99.90
24410;DHT22;12543;53.364;-1.504;2022-09-13T15:03:20;20.80;99.90
24410;DHT22;12543;53.364;-1.504;2022-09-13T15:05:52;20.80;99.90
24410;DHT22;12543;53.364;-1.504;2022-09-13T15:10:59;20.70;99.90
24410;DHT22;12543;53.364;-1.504;2022-09-13T15:13:26;20.60;99.90
24410;DHT22;12543;53.364;-1.504;2022-09-13T15:15:53;20.60;99.90
24410;DHT22;12543;53.364;-1.504;2022-09-13T15:18:22;20.60;99.90
24410;DHT22;12543;53.364;-1.504;2022-09-13T15:20:59;20.60;99.90
24410;DHT22;12543;53.364;-1.504;2022-09-13T15:28:31;20.40;99.90
24410;DHT22;12543;53.364;-1.504;2022-09-13T15:30:59;20.40;99.90
24410;DHT22;12543;53.364;-1.504;2022-09-13T15:33:27;20.30;99.90
24410;DHT22;12543;53.364;-1.504;2022-09-13T15:41:29;20.10;99.90
24410;DHT22;12543;53.364;-1.504;2022-09-13T15:43:57;20.00;99.90
24410;DHT22;12543;53.364;-1.504;2022-09-13T15:46:24;20.00;99.90
24410;DHT22;12543;53.364;-1.504;2022-09-13T15:48:53;19.90;99.90
24410;DHT22;12543;53.364;-1.504;2022-09-13T15:51:21;19.80;99.90
24410;DHT22;12543;53.364;-1.504;2022-09-13T15:53:48;19.80;99.90
24410;DHT22;12543;53.364;-1.504;2022-09-13T15:56:17;19.70;99.90
24410;DHT22;12543;53.364;-1.504;2022-09-13T15:58:45;19.70;99.90
24410;DHT22;12543;53.364;-1.504;2022-09-13T16:01:12;19.80;99.90
24410;DHT22;12543;53.364;-1.504;2022-09-13T16:03:40;19.70;99.90
24410;DHT22;12543;53.364;-1.504;2022-09-13T16:06:07;19.70;99.90
24410;DHT22;12543;53.364;-1.504;2022-09-13T16:08:35;19.70;99.90
24410;DHT22;12543;53.364;-1.504;2022-09-13T16:11:02;19.70;99.90
24410;DHT22;12543;53.364;-1.504;2022-09-13T16:13:29;19.60;99.90
24410;DHT22;12543;53.364;-1.504;2022-09-13T16:15:56;19.60;99.90
24410;DHT22;12543;53.364;-1.504;2022-09-13T16:18:23;19.60;99.90
24410;DHT22;12543;53.364;-1.504;2022-09-13T16:20:50;19.50;99.90
24410;DHT22;12543;53.364;-1.504;2022-09-13T16:23:17;19.50;99.90
24410;DHT22;12543;53.364;-1.504;2022-09-13T16:25:44;19.40;99.90
24410;DHT22;12543;53.364;-1.504;2022-09-13T16:28:14;19.50;99.90
24410;DHT22;12543;53.364;-1.504;2022-09-13T16:30:42;19.40;99.90
24410;DHT22;12543;53.364;-1.504;2022-09-13T16:33:09;19.40;99.90
24410;DHT22;12543;53.364;-1.504;2022-09-13T16:35:36;19.30;99.90
24410;DHT22;12543;53.364;-1.504;2022-09-13T16:38:03;19.30;99.90
24410;DHT22;12543;53.364;-1.504;2022-09-13T16:40:30;19.20;99.90
24410;DHT22;12543;53.364;-1.504;2022-09-13T16:42:56;19.20;99.90
24410;DHT22;12543;53.364;-1.504;2022-09-13T16:45:23;19.10;99.90
24410;DHT22;12543;53.364;-1.504;2022-09-13T16:47:50;19.00;99.90
24410;DHT22;12543;53.364;-1.504;2022-09-13T16:50:17;19.00;99.90
24410;DHT22;12543;53.364;-1.504;2022-09-13T16:52:45;19.00;99.90
24410;DHT22;12543;53.364;-1.504;2022-09-13T16:55:12;18.90;99.90
24410;DHT22;12543;53.364;-1.504;2022-09-13T16:57:39;18.90;99.90
24410;DHT22;12543;53.364;-1.504;2022-09-13T17:00:06;18.80;99.90
24410;DHT22;12543;53.364;-1.504;2022-09-13T17:02:36;18.80;99.90
24410;DHT22;12543;53.364;-1.504;2022-09-13T17:05:03;18.80;99.90
24410;DHT22;12543;53.364;-1.504;2022-09-13T17:07:33;18.80;99.90
24410;DHT22;12543;53.364;-1.504;2022-09-13T17:10:00;18.70;99.90
24410;DHT22;12543;53.364;-1.504;2022-09-13T17:12:27;18.70;99.90
24410;DHT22;12543;53.364;-1.504;2022-09-13T17:14:54;18.70;99.90
24410;DHT22;12543;53.364;-1.504;2022-09-13T17:17:21;18.70;99.90
24410;DHT22;12543;53.364;-1.504;2022-09-13T17:19:48;18.60;99.90
24410;DHT22;12543;53.364;-1.504;2022-09-13T17:22:15;18.60;99.90
24410;DHT22;12543;53.364;-1.504;2022-09-13T17:24:42;18.60;99.90
24410;DHT22;12543;53.364;-1.504;2022-09-13T17:27:09;18.50;99.90
24410;DHT22;12543;53.364;-1.504;2022-09-13T17:29:36;18.50;99.90
24410;DHT22;12543;53.364;-1.504;2022-09-13T17:32:04;18.50;99.90
24410;DHT22;12543;53.364;-1.504;2022-09-13T17:34:31;18.40;99.90
24410;DHT22;12543;53.364;-1.504;2022-09-13T17:37:00;18.40;99.90
24410;DHT22;12543;53.364;-1.504;2022-09-13T17:39:29;18.30;99.90
24410;DHT22;12543;53.364;-1.504;2022-09-13T17:41:56;18.30;99.90
24410;DHT22;12543;53.364;-1.504;2022-09-13T17:44:23;18.30;99.90
24410;DHT22;12543;53.364;-1.504;2022-09-13T17:46:50;18.20;99.90
24410;DHT22;12543;53.364;-1.504;2022-09-13T17:49:17;18.20;99.90
24410;DHT22;12543;53.364;-1.504;2022-09-13T17:51:45;18.20;99.90
24410;DHT22;12543;53.364;-1.504;2022-09-13T17:54:12;18.20;99.90
24410;DHT22;12543;53.364;-1.504;2022-09-13T17:56:42;18.10;99.90
24410;DHT22;12543;53.364;-1.504;2022-09-13T17:59:19;18.10;99.90
24410;DHT22;12543;53.364;-1.504;2022-09-13T18:01:49;18.10;99.90
24410;DHT22;12543;53.364;-1.504;2022-09-13T18:04:17;18.00;99.90
24410;DHT22;12543;53.364;-1.504;2022-09-13T18:06:45;18.00;99.90
24410;DHT22;12543;53.364;-1.504;2022-09-13T18:09:12;18.00;99.90
24410;DHT22;12543;53.364;-1.504;2022-09-13T18:11:39;17.90;99.90
24410;DHT22;12543;53.364;-1.504;2022-09-13T18:14:09;17.90;99.90
24410;DHT22;12543;53.364;-1.504;2022-09-13T18:16:37;17.90;99.90
24410;DHT22;12543;53.364;-1.504;2022-09-13T18:19:04;17.80;99.90
24410;DHT22;12543;53.364;-1.504;2022-09-13T18:21:31;17.80;99.90
24410;DHT22;12543;53.364;-1.504;2022-09-13T18:23:58;17.80;99.90
24410;DHT22;12543;53.364;-1.504;2022-09-13T18:26:26;17.70;99.90
24410;DHT22;12543;53.364;-1.504;2022-09-13T18:28:57;17.70;99.90
24410;DHT22;12543;53.364;-1.504;2022-09-13T18:31:27;17.70;99.90
24410;DHT22;12543;53.364;-1.504;2022-09-13T18:33:55;17.60;99.90
24410;DHT22;12543;53.364;-1.504;2022-09-13T18:36:23;17.60;99.90
24410;DHT22;12543;53.364;-1.504;2022-09-13T18:38:50;17.60;99.90
24410;DHT22;12543;53.364;-1.504;2022-09-13T18:41:20;17.50;99.90
24410;DHT22;12543;53.364;-1.504;2022-09-13T18:43:48;17.50;99.90
24410;DHT22;12543;53.364;-1.504;2022-09-13T18:46:22;17.50;99.90
24410;DHT22;12543;53.364;-1.504;2022-09-13T18:48:50;17.40;99.90
24410;DHT22;12543;53.364;-1.504;2022-09-13T18:51:19;17.30;99.90
24410;DHT22;12543;53.364;-1.504;2022-09-13T18:53:46;17.30;99.90
24410;DHT22;12543;53.364;-1.504;2022-09-13T18:56:14;17.30;99.90
24410;DHT22;12543;53.364;-1.504;2022-09-13T18:58:42;17.20;99.90
24410;DHT22;12543;53.364;-1.504;2022-09-13T19:01:10;17.20;99.90
24410;DHT22;12543;53.364;-1.504;2022-09-13T19:03:38;17.20;99.90
24410;DHT22;12543;53.364;-1.504;2022-09-13T19:06:16;17.10;99.90
24410;DHT22;12543;53.364;-1.504;2022-09-13T19:08:43;17.10;99.90
24410;DHT22;12543;53.364;-1.504;2022-09-13T19:11:11;17.10;99.90
24410;DHT22;12543;53.364;-1.504;2022-09-13T19:13:58;17.00;99.90
24410;DHT22;12543;53.364;-1.504;2022-09-13T19:16:25;17.00;99.90
24410;DHT22;12543;53.364;-1.504;2022-09-13T19:18:52;16.90;99.90
24410;DHT22;12543;53.364;-1.504;2022-09-13T19:21:20;16.90;99.90
24410;DHT22;12543;53.364;-1.504;2022-09-13T19:23:48;16.90;99.90
24410;DHT22;12543;53.364;-1.504;2022-09-13T19:26:33;16.80;99.90
24410;DHT22;12543;53.364;-1.504;2022-09-13T19:29:02;16.80;99.90
24410;DHT22;12543;53.364;-1.504;2022-09-13T19:31:32;16.80;99.90
24410;DHT22;12543;53.364;-1.504;2022-09-13T19:34:00;16.70;99.90
24410;DHT22;12543;53.364;-1.504;2022-09-13T19:36:28;16.70;99.90
24410;DHT22;12543;53.364;-1.504;2022-09-13T19:39:00;16.70;99.90
24410;DHT22;12543;53.364;-1.504;2022-09-13T19:41:27;16.60;99.90
24410;DHT22;12543;53.364;-1.504;2022-09-13T19:43:58;16.60;99.90
24410;DHT22;12543;53.364;-1.504;2022-09-13T19:46:26;16.50;99.90
24410;DHT22;12543;53.364;-1.504;2022-09-13T19:48:54;16.50;99.90
24410;DHT22;12543;53.364;-1.504;2022-09-13T19:51:22;16.50;99.90
24410;DHT22;12543;53.364;-1.504;2022-09-13T19:53:50;16.50;99.90
24410;DHT22;12543;53.364;-1.504;2022-09-13T19:56:30;16.40;99.90
24410;DHT22;12543;53.364;-1.504;2022-09-13T19:58:58;16.40;99.90
24410;DHT22;12543;53.364;-1.504;2022-09-13T20:01:27;16.40;99.90
24410;DHT22;12543;53.364;-1.504;2022-09-13T20:04:04;16.40;99.90
24410;DHT22;12543;53.364;-1.504;2022-09-13T20:06:39;16.30;99.90
24410;DHT22;12543;53.364;-1.504;2022-09-13T20:09:07;16.30;99.90
24410;DHT22;12543;53.364;-1.504;2022-09-13T20:11:35;16.30;99.90
24410;DHT22;12543;53.364;-1.504;2022-09-13T20:14:08;16.20;99.90
24410;DHT22;12543;53.364;-1.504;2022-09-13T20:16:36;16.20;99.90
24410;DHT22;12543;53.364;-1.504;2022-09-13T20:19:03;16.20;99.90
24410;DHT22;12543;53.364;-1.504;2022-09-13T20:21:50;16.10;99.90
24410;DHT22;12543;53.364;-1.504;2022-09-13T20:24:17;16.10;99.90
24410;DHT22;12543;53.364;-1.504;2022-09-13T20:26:44;16.10;99.90
24410;DHT22;12543;53.364;-1.504;2022-09-13T20:29:11;16.00;99.90
24410;DHT22;12543;53.364;-1.504;2022-09-13T20:31:39;16.00;99.90
24410;DHT22;12543;53.364;-1.504;2022-09-13T20:34:07;16.00;99.90
24410;DHT22;12543;53.364;-1.504;2022-09-13T20:36:34;15.90;99.90
24410;DHT22;12543;53.364;-1.504;2022-09-13T20:39:02;15.90;99.90
24410;DHT22;12543;53.364;-1.504;2022-09-13T20:41:29;15.90;99.90
24410;DHT22;12543;53.364;-1.504;2022-09-13T20:43:57;15.80;99.90
24410;DHT22;12543;53.364;-1.504;2022-09-13T20:46:27;15.80;99.90
24410;DHT22;12543;53.364;-1.504;2022-09-13T20:48:56;15.70;99.90
24410;DHT22;12543;53.364;-1.504;2022-09-13T20:51:23;15.70;99.90
24410;DHT22;12543;53.364;-1.504;2022-09-13T20:53:57;15.70;99.90
24410;DHT22;12543;53.364;-1.504;2022-09-13T20:56:26;15.60;99.90
24410;DHT22;12543;53.364;-1.504;2022-09-13T20:58:55;15.60;99.90
24410;DHT22;12543;53.364;-1.504;2022-09-13T21:01:23;15.60;99.90
24410;DHT22;12543;53.364;-1.504;2022-09-13T21:03:51;15.60;99.90
24410;DHT22;12543;53.364;-1.504;2022-09-13T21:06:19;15.50;99.90
24410;DHT22;12543;53.364;-1.504;2022-09-13T21:08:46;15.50;99.90
24410;DHT22;12543;53.364;-1.504;2022-09-13T21:11:17;15.50;99.90
24410;DHT22;12543;53.364;-1.504;2022-09-13T21:13:48;15.50;99.90
24410;DHT22;12543;53.364;-1.504;2022-09-13T21:16:16;15.40;99.90
24410;DHT22;12543;53.364;-1.504;2022-09-13T21:18:44;15.40;99.90
24410;DHT22;12543;53.364;-1.504;2022-09-13T21:21:12;15.40;99.90
24410;DHT22;12543;53.364;-1.504;2022-09-13T21:23:40;15.30;99.90
24410;DHT22;12543;53.364;-1.504;2022-09-13T21:26:08;15.30;99.90
24410;DHT22;12543;53.364;-1.504;2022-09-13T21:28:36;15.30;99.90
24410;DHT22;12543;53.364;-1.504;2022-09-13T21:31:04;15.30;99.90
24410;DHT22;12543;53.364;-1.504;2022-09-13T21:33:32;15.20;99.90
24410;DHT22;12543;53.364;-1.504;2022-09-13T21:36:00;15.20;99.90
24410;DHT22;12543;53.364;-1.504;2022-09-13T21:38:28;15.20;99.90
24410;DHT22;12543;53.364;-1.504;2022-09-13T21:41:05;15.20;99.90
24410;DHT22;12543;53.364;-1.504;2022-09-13T21:43:34;15.20;99.90
24410;DHT22;12543;53.364;-1.504;2022-09-13T21:46:02;15.10;99.90
24410;DHT22;12543;53.364;-1.504;2022-09-13T21:48:30;15.10;99.90
24410;DHT22;12543;53.364;-1.504;2022-09-13T21:51:02;15.10;99.90
24410;DHT22;12543;53.364;-1.504;2022-09-13T21:53:31;15.00;99.90
24410;DHT22;12543;53.364;-1.504;2022-09-13T21:56:04;15.00;99.90
24410;DHT22;12543;53.364;-1.504;2022-09-13T21:58:32;15.00;99.90
24410;DHT22;12543;53.364;-1.504;2022-09-13T22:01:00;15.00;99.90
24410;DHT22;12543;53.364;-1.504;2022-09-13T22:03:29;15.00;99.90
24410;DHT22;12543;53.364;-1.504;2022-09-13T22:05:56;14.90;99.90
24410;DHT22;12543;53.364;-1.504;2022-09-13T22:08:23;14.90;99.90
24410;DHT22;12543;53.364;-1.504;2022-09-13T22:10:50;14.90;99.90
24410;DHT22;12543;53.364;-1.504;2022-09-13T22:13:17;14.80;99.90
24410;DHT22;12543;53.364;-1.504;2022-09-13T22:15:45;14.80;99.90
24410;DHT22;12543;53.364;-1.504;2022-09-13T22:18:12;14.80;99.90
24410;DHT22;12543;53.364;-1.504;2022-09-13T22:20:39;14.80;99.90
24410;DHT22;12543;53.364;-1.504;2022-09-13T22:23:06;14.70;99.90
24410;DHT22;12543;53.364;-1.504;2022-09-13T22:25:33;14.70;99.90
24410;DHT22;12543;53.364;-1.504;2022-09-13T22:27:59;14.70;99.90
24410;DHT22;12543;53.364;-1.504;2022-09-13T22:30:26;14.70;99.90
24410;DHT22;12543;53.364;-1.504;2022-09-13T22:32:53;14.60;99.90
24410;DHT22;12543;53.364;-1.504;2022-09-13T22:35:21;14.60;99.90
24410;DHT22;12543;53.364;-1.504;2022-09-13T22:37:48;14.60;99.90
24410;DHT22;12543;53.364;-1.504;2022-09-13T22:40:15;14.50;99.90
24410;DHT22;12543;53.364;-1.504;2022-09-13T22:42:42;14.50;99.90
24410;DHT22;12543;53.364;-1.504;2022-09-13T22:45:10;14.50;99.90
24410;DHT22;12543;53.364;-1.504;2022-09-13T22:47:37;14.40;99.90
24410;DHT22;12543;53.364;-1.504;2022-09-13T22:50:03;14.40;99.90
24410;DHT22;12543;53.364;-1.504;2022-09-13T22:52:31;14.40;99.90
24410;DHT22;12543;53.364;-1.504;2022-09-13T22:54:57;14.40;99.90
24410;DHT22;12543;53.364;-1.504;2022-09-13T22:57:25;14.30;99.90
24410;DHT22;12543;53.364;-1.504;2022-09-13T22:59:52;14.30;99.90
24410;DHT22;12543;53.364;-1.504;2022-09-13T23:02:18;14.30;99.90
24410;DHT22;12543;53.364;-1.504;2022-09-13T23:04:45;14.30;99.90
24410;DHT22;12543;53.364;-1.504;2022-09-13T23:07:13;14.30;99.90
24410;DHT22;12543;53.364;-1.504;2022-09-13T23:09:40;14.20;99.90
24410;DHT22;12543;53.364;-1.504;2022-09-13T23:12:07;14.20;99.90
24410;DHT22;12543;53.364;-1.504;2022-09-13T23:14:34;14.20;99.90
24410;DHT22;12543;53.364;-1.504;2022-09-13T23:17:01;14.10;99.90
24410;DHT22;12543;53.364;-1.504;2022-09-13T23:19:28;14.10;99.90
24410;DHT22;12543;53.364;-1.504;2022-09-13T23:21:55;14.10;99.90
24410;DHT22;12543;53.364;-1.504;2022-09-13T23:24:22;14.10;99.90
24410;DHT22;12543;53.364;-1.504;2022-09-13T23:26:49;14.10;99.90
24410;DHT22;12543;53.364;-1.504;2022-09-13T23:29:19;14.00;99.90
24410;DHT22;12543;53.364;-1.504;2022-09-13T23:31:46;14.00;99.90
24410;DHT22;12543;53.364;-1.504;2022-09-13T23:34:14;14.00;99.90
24410;DHT22;12543;53.364;-1.504;2022-09-13T23:36:41;14.00;99.90
24410;DHT22;12543;53.364;-1.504;2022-09-13T23:39:13;14.00;99.90
24410;DHT22;12543;53.364;-1.504;2022-09-13T23:41:42;13.90;99.90
24410;DHT22;12543;53.364;-1.504;2022-09-13T23:44:09;13.90;99.90
24410;DHT22;12543;53.364;-1.504;2022-09-13T23:46:36;13.90;99.90
24410;DHT22;12543;53.364;-1.504;2022-09-13T23:49:03;13.90;99.90
24410;DHT22;12543;53.364;-1.504;2022-09-13T23:51:30;13.80;99.90
24410;DHT22;12543;53.364;-1.504;2022-09-13T23:53:57;13.90;99.90
24410;DHT22;12543;53.364;-1.504;2022-09-13T23:56:27;13.80;99.90
24410;DHT22;12543;53.364;-1.504;2022-09-13T23:58:55;13.80;99.90
